Time;durP1;ratioP1;P1;durP2;ratioP2;P2;SDS_P1;SDS_P2;PMS_P1;PMS_P2;Temp;Humidity;BMP_temperature;BMP_pressure;BME280_temperature;BME280_humidity;BME280_pressure;Samples;Min_cycle;Max_cycle;Signal;HPM_P1;HPM_P2
2023/02/20 00:00:15;;;;;;;4.18;3.88;;;16.00;97.50;;;;;;5035975;28;20484;-85
2023/02/20 00:02:40;;;;;;;4.30;4.00;;;16.00;97.50;;;;;;5018790;28;20068;-85
2023/02/20 00:05:06;;;;;;;4.22;3.92;;;16.00;97.60;;;;;;5036980;28;20581;-85
2023/02/20 00:07:31;;;;;;;4.22;3.92;;;16.00;97.60;;;;;;5019729;28;20045;-85
2023/02/20 00:09:57;;;;;;;4.20;3.90;;;16.00;97.60;;;;;;5033134;28;20060;-85
2023/02/20 00:12:23;;;;;;;4.40;4.00;;;16.00;97.60;;;;;;5032450;28;20064;-85
2023/02/20 00:14:48;;;;;;;5.93;4.63;;;16.00;97.60;;;;;;5030911;28;20046;-85
2023/02/20 00:17:14;;;;;;;4.47;4.07;;;16.00;97.50;;;;;;5032818;28;20132;-85
2023/02/20 00:19:39;;;;;;;4.43;4.07;;;15.90;97.60;;;;;;5038117;28;20506;-85
2023/02/20 00:22:05;;;;;;;5.70;4.40;;;15.90;97.60;;;;;;5033813;28;20042;-86
2023/02/20 00:24:30;;;;;;;3.83;3.53;;;16.00;97.50;;;;;;5032488;28;21143;-85
2023/02/20 00:26:56;;;;;;;4.22;3.85;;;15.90;97.50;;;;;;5031879;28;20060;-85
2023/02/20 00:29:22;;;;;;;4.50;4.20;;;15.90;97.50;;;;;;5034801;28;20497;-85
2023/02/20 00:31:55;;;;;;;4.47;4.18;;;15.90;97.50;;;;;;5032476;28;20589;-85
2023/02/20 00:34:21;;;;;;;4.50;4.10;;;15.90;97.50;;;;;;5035409;28;20053;-85
2023/02/20 00:36:47;;;;;;;4.00;3.70;;;15.90;97.50;;;;;;5019122;28;20049;-86
2023/02/20 00:39:13;;;;;;;4.20;3.90;;;15.90;97.50;;;;;;5031413;28;20036;-84
2023/02/20 00:41:38;;;;;;;4.43;4.13;;;16.00;97.50;;;;;;5035953;28;20049;-86
2023/02/20 00:44:04;;;;;;;4.40;4.00;;;15.90;97.50;;;;;;5034569;28;20049;-86
2023/02/20 00:46:29;;;;;;;3.83;3.53;;;15.90;97.50;;;;;;5032534;28;20081;-85
2023/02/20 00:48:55;;;;;;;4.20;3.90;;;15.90;97.40;;;;;;5045197;28;20056;-85
2023/02/20 00:51:21;;;;;;;4.60;4.20;;;15.90;97.50;;;;;;5049728;28;20509;-85
2023/02/20 00:53:46;;;;;;;4.38;4.00;;;15.90;97.80;;;;;;5051724;28;20056;-85
2023/02/20 00:56:12;;;;;;;4.60;4.30;;;15.90;97.40;;;;;;5050915;28;20502;-85
2023/02/20 00:58:37;;;;;;;4.57;4.18;;;15.90;97.40;;;;;;5052763;28;20507;-85
2023/02/20 01:01:03;;;;;;;3.92;3.63;;;15.90;97.50;;;;;;5054587;28;20497;-85
2023/02/20 01:03:29;;;;;;;4.30;4.05;;;15.90;97.40;;;;;;5034231;28;20524;-85
2023/02/20 01:05:54;;;;;;;4.80;3.38;;;15.90;97.40;;;;;;5052920;28;20033;-85
2023/02/20 01:08:20;;;;;;;3.38;3.08;;;15.90;97.40;;;;;;5052534;28;20040;-85
2023/02/20 01:10:45;;;;;;;3.40;3.10;;;15.90;97.50;;;;;;5041553;28;20037;-86
2023/02/20 01:13:11;;;;;;;2.80;2.60;;;15.90;97.80;;;;;;5057882;28;20401;-85
2023/02/20 01:15:36;;;;;;;4.13;3.72;;;15.80;97.40;;;;;;5037872;28;20040;-85
2023/02/20 01:18:04;;;;;;;3.88;3.55;;;15.90;97.40;;;;;;5054466;28;20441;-85
2023/02/20 01:20:30;;;;;;;3.53;3.33;;;15.80;97.40;;;;;;5037654;28;20080;-85
2023/02/20 01:22:55;;;;;;;3.95;3.58;;;15.90;97.40;;;;;;5050486;28;20077;-85
2023/02/20 01:25:21;;;;;;;3.28;3.00;;;15.90;97.40;;;;;;5051331;28;20048;-85
2023/02/20 01:27:47;;;;;;;3.13;2.92;;;15.80;97.30;;;;;;5050323;28;20041;-85
2023/02/20 01:30:12;;;;;;;3.58;3.28;;;15.80;97.30;;;;;;5052644;28;20526;-85
2023/02/20 01:32:38;;;;;;;3.17;2.88;;;15.80;97.40;;;;;;5050046;28;20049;-85
2023/02/20 01:35:04;;;;;;;2.80;2.60;;;15.80;97.40;;;;;;5055045;28;20125;-86
2023/02/20 01:37:29;;;;;;;3.28;3.08;;;15.80;97.30;;;;;;5037462;28;20041;-85
2023/02/20 01:39:55;;;;;;;3.33;3.13;;;15.80;97.40;;;;;;5047591;28;20079;-86
2023/02/20 01:42:22;;;;;;;3.00;2.80;;;15.80;97.40;;;;;;5048202;28;20040;-84
2023/02/20 01:44:48;;;;;;;3.00;2.80;;;15.80;97.40;;;;;;5041484;28;20043;-86
2023/02/20 01:47:18;;;;;;;3.55;3.25;;;15.80;97.30;;;;;;5054538;28;20128;-85
2023/02/20 01:49:57;;;;;;;3.42;3.00;;;15.80;97.30;;;;;;5049965;28;20045;-85
2023/02/20 01:52:30;;;;;;;3.03;2.83;;;15.80;97.30;;;;;;5038732;28;20047;-84
2023/02/20 01:55:01;;;;;;;2.78;2.58;;;15.80;97.30;;;;;;5028933;28;20052;-85
2023/02/20 01:57:28;;;;;;;3.90;3.53;;;15.80;97.30;;;;;;5053789;28;20063;-84
2023/02/20 01:59:57;;;;;;;3.45;3.15;;;15.80;97.30;;;;;;5052405;28;20043;-85
2023/02/20 02:02:22;;;;;;;3.10;2.90;;;15.80;97.30;;;;;;5053974;28;20617;-83
2023/02/20 02:04:48;;;;;;;3.30;3.00;;;15.80;97.30;;;;;;5067080;28;20132;-84
2023/02/20 02:07:14;;;;;;;3.15;2.95;;;15.70;97.30;;;;;;5034802;28;20072;-85
2023/02/20 02:09:57;;;;;;;3.60;3.30;;;15.70;97.30;;;;;;5046894;28;20461;-83
2023/02/20 02:12:23;;;;;;;3.53;3.22;;;15.80;97.30;;;;;;5046290;28;20044;-81
2023/02/20 02:14:48;;;;;;;3.38;3.08;;;15.80;97.30;;;;;;5037076;28;20560;-81
2023/02/20 02:17:24;;;;;;;2.75;2.55;;;15.80;97.30;;;;;;5053005;28;20546;-81
2023/02/20 02:20:16;;;;;;;2.97;2.78;;;15.70;97.30;;;;;;5037441;28;20536;-82
2023/02/20 02:22:54;;;;;;;3.00;2.75;;;15.80;97.20;;;;;;5042098;28;20045;-81
2023/02/20 02:25:34;;;;;;;3.13;2.92;;;15.70;97.20;;;;;;5019342;28;20033;-81
2023/02/20 02:28:21;;;;;;;2.67;2.58;;;15.70;97.30;;;;;;5054026;28;20037;-81
2023/02/20 02:31:19;;;;;;;3.42;3.13;;;15.70;97.30;;;;;;5038403;28;20069;-81
2023/02/20 02:33:53;;;;;;;2.72;2.53;;;15.70;97.30;;;;;;5028494;28;20084;-81
2023/02/20 02:36:25;;;;;;;2.95;2.65;;;15.70;97.20;;;;;;5053127;28;20068;-81
2023/02/20 02:39:12;;;;;;;2.90;2.70;;;15.70;97.20;;;;;;5048892;28;20045;-81
2023/02/20 02:42:16;;;;;;;3.17;2.97;;;15.70;97.20;;;;;;5037117;28;20038;-81
2023/02/20 02:44:52;;;;;;;2.85;2.65;;;15.70;97.20;;;;;;5009258;28;20057;-81
2023/02/20 02:47:30;;;;;;;2.90;2.70;;;15.70;97.10;;;;;;4997996;28;20045;-81
2023/02/20 02:50:07;;;;;;;2.67;2.47;;;15.70;97.20;;;;;;4999100;28;20045;-82
2023/02/20 02:52:45;;;;;;;2.45;2.35;;;15.70;97.30;;;;;;4986555;28;20050;-81
2023/02/20 02:55:11;;;;;;;3.15;2.75;;;15.70;97.10;;;;;;4994522;28;20033;-81
2023/02/20 02:57:36;;;;;;;2.40;2.20;;;15.70;97.10;;;;;;4992375;28;20034;-82
2023/02/20 03:00:18;;;;;;;2.13;2.03;;;15.60;97.10;;;;;;5009896;28;20037;-81
2023/02/20 03:02:53;;;;;;;2.30;2.10;;;15.70;97.20;;;;;;5000779;28;20038;-81
2023/02/20 03:05:20;;;;;;;2.60;2.50;;;15.70;97.20;;;;;;5012812;28;20056;-81
2023/02/20 03:07:47;;;;;;;2.80;2.60;;;15.70;97.20;;;;;;5000154;28;20068;-81
2023/02/20 03:10:19;;;;;;;3.08;2.88;;;15.70;97.20;;;;;;4982841;28;20450;-81
2023/02/20 03:12:47;;;;;;;2.25;2.10;;;15.70;97.20;;;;;;5000642;28;20147;-81
2023/02/20 03:15:32;;;;;;;2.28;2.10;;;15.70;97.10;;;;;;5010297;28;20077;-81
2023/02/20 03:18:09;;;;;;;2.72;2.53;;;15.70;97.20;;;;;;5035579;28;20286;-81
2023/02/20 03:20:38;;;;;;;2.58;2.38;;;15.70;97.10;;;;;;5047974;28;20387;-81
2023/02/20 03:23:04;;;;;;;2.20;2.10;;;15.60;97.10;;;;;;5036001;28;20395;-81
2023/02/20 03:25:35;;;;;;;2.28;2.08;;;15.60;97.10;;;;;;5032044;28;20033;-81
2023/02/20 03:28:12;;;;;;;2.40;2.20;;;15.60;97.20;;;;;;5022839;28;20140;-81
2023/02/20 03:31:04;;;;;;;2.42;2.33;;;15.60;97.30;;;;;;5040131;28;20052;-81
2023/02/20 03:45:13;;;;;;;2.53;2.33;;;15.60;97.20;;;;;;5040482;28;20060;-82
2023/02/20 03:47:42;;;;;;;2.40;2.20;;;15.60;97.10;;;;;;5048570;28;20037;-81
2023/02/20 03:52:52;;;;;;;;;;;15.60;97.10;;;;;;5044256;28;20101;-81
2023/02/20 03:55:17;;;;;;;2.58;2.38;;;15.60;97.20;;;;;;5053740;28;19917;-81
2023/02/20 03:57:46;;;;;;;2.22;2.13;;;15.60;97.00;;;;;;5065645;28;20553;-81
2023/02/20 04:00:14;;;;;;;2.35;2.15;;;15.60;97.10;;;;;;5051613;28;20471;-81
2023/02/20 04:02:41;;;;;;;2.38;2.17;;;15.60;97.00;;;;;;5066859;28;20052;-81
2023/02/20 04:05:13;;;;;;;2.47;2.38;;;15.60;97.10;;;;;;5040572;28;20052;-81
2023/02/20 04:07:46;;;;;;;2.10;2.00;;;15.60;97.20;;;;;;5042865;28;20498;-81
2023/02/20 04:10:14;;;;;;;2.20;2.00;;;15.60;97.10;;;;;;5058112;28;20102;-81
2023/02/20 04:12:42;;;;;;;2.40;2.30;;;15.60;97.10;;;;;;5037185;28;20072;-82
2023/02/20 04:15:07;;;;;;;1.92;1.77;;;15.60;97.20;;;;;;5065193;28;20132;-81
2023/02/20 04:17:50;;;;;;;2.10;2.00;;;15.60;97.10;;;;;;5053862;28;20609;-81
2023/02/20 04:20:16;;;;;;;2.30;2.10;;;15.60;97.10;;;;;;5070191;28;20491;-81
2023/02/20 04:22:44;;;;;;;2.55;2.38;;;15.60;97.10;;;;;;5026518;28;20941;-81
2023/02/20 04:25:37;;;;;;;2.10;2.00;;;15.60;97.20;;;;;;5039034;28;20045;-81
2023/02/20 04:28:03;;;;;;;2.40;2.20;;;15.60;97.30;;;;;;5053343;28;20036;-81
2023/02/20 04:30:28;;;;;;;2.13;2.03;;;15.60;97.20;;;;;;5035617;28;20391;-81
2023/02/20 04:32:54;;;;;;;2.47;2.28;;;15.60;97.20;;;;;;5057628;28;20051;-81
2023/02/20 04:35:20;;;;;;;2.08;1.98;;;15.60;97.10;;;;;;5037493;28;20048;-81
2023/02/20 04:37:46;;;;;;;2.67;2.47;;;15.60;97.10;;;;;;5055684;28;20080;-81
2023/02/20 04:40:12;;;;;;;3.03;2.10;;;15.60;97.10;;;;;;5057339;28;20138;-81
2023/02/20 04:42:37;;;;;;;2.35;2.15;;;15.60;97.40;;;;;;5034538;28;20524;-81
2023/02/20 04:45:03;;;;;;;1.88;1.77;;;15.60;97.00;;;;;;5055498;28;20128;-81
2023/02/20 04:47:29;;;;;;;1.65;1.55;;;15.60;97.10;;;;;;5049220;28;20041;-81
2023/02/20 04:49:54;;;;;;;2.28;2.17;;;15.60;97.10;;;;;;5057583;28;20044;-81
2023/02/20 04:52:20;;;;;;;2.22;1.77;;;15.60;97.10;;;;;;5050328;28;20036;-81
2023/02/20 04:54:47;;;;;;;1.67;1.58;;;15.60;97.00;;;;;;5052135;28;20060;-81
2023/02/20 04:57:13;;;;;;;2.17;2.03;;;15.60;97.00;;;;;;5049349;28;20060;-82
2023/02/20 04:59:38;;;;;;;1.85;1.75;;;15.60;97.00;;;;;;5055076;28;20040;-81
2023/02/20 05:02:04;;;;;;;1.75;1.65;;;15.60;97.00;;;;;;5057611;28;20056;-81
2023/02/20 05:04:29;;;;;;;1.90;1.80;;;15.60;97.00;;;;;;5054682;28;20041;-80
2023/02/20 05:06:55;;;;;;;2.45;2.22;;;15.60;97.00;;;;;;5054972;28;20131;-81
2023/02/20 05:09:21;;;;;;;2.13;2.03;;;15.60;97.00;;;;;;5056119;28;20533;-81
2023/02/20 05:11:47;;;;;;;1.65;1.55;;;15.60;97.00;;;;;;5040537;28;20037;-81
2023/02/20 05:14:12;;;;;;;2.00;1.90;;;15.60;97.00;;;;;;5068501;28;20056;-81
2023/02/20 05:16:39;;;;;;;1.98;1.88;;;15.60;97.10;;;;;;5051807;28;20064;-81
2023/02/20 05:19:05;;;;;;;2.10;2.00;;;15.60;97.10;;;;;;5047353;28;20044;-81
2023/02/20 05:24:15;;;;;;;2.22;2.03;;;15.60;97.10;;;;;;5049968;28;20106;-81
2023/02/20 05:26:40;;;;;;;1.75;1.65;;;15.60;97.00;;;;;;5057708;28;20448;-81
2023/02/20 05:29:08;;;;;;;1.83;1.73;;;15.60;97.10;;;;;;5056405;28;20037;-81
2023/02/20 05:31:34;;;;;;;1.90;1.80;;;15.60;97.10;;;;;;5053624;28;20663;-80
2023/02/20 05:34:00;;;;;;;2.00;1.80;;;15.60;97.00;;;;;;5050734;28;20044;-81
2023/02/20 05:36:25;;;;;;;2.35;1.83;;;15.60;97.00;;;;;;5054498;28;20537;-81
2023/02/20 05:38:51;;;;;;;2.35;2.08;;;15.60;97.10;;;;;;5035726;28;20425;-81
2023/02/20 05:41:17;;;;;;;1.70;1.60;;;15.60;97.10;;;;;;5051641;28;20053;-81
2023/02/20 05:43:43;;;;;;;1.42;1.33;;;15.60;97.10;;;;;;5051524;28;20036;-81
2023/02/20 05:46:09;;;;;;;1.70;1.60;;;15.60;97.10;;;;;;5053495;28;20037;-81
2023/02/20 05:48:34;;;;;;;1.85;1.75;;;15.60;97.00;;;;;;5050075;28;20114;-80
2023/02/20 05:51:00;;;;;;;1.92;1.83;;;15.60;97.10;;;;;;5054278;28;20044;-81
2023/02/20 05:53:29;;;;;;;1.40;1.30;;;15.60;97.10;;;;;;5048262;28;20467;-81
2023/02/20 05:55:55;;;;;;;1.60;1.50;;;15.60;97.20;;;;;;5063781;28;20514;-81
2023/02/20 05:58:20;;;;;;;1.27;1.25;;;15.60;97.10;;;;;;5053680;28;20121;-82
2023/02/20 06:00:46;;;;;;;1.70;1.60;;;15.60;97.10;;;;;;5052473;28;20037;-81
2023/02/20 06:03:13;;;;;;;2.05;1.85;;;15.60;97.20;;;;;;5054815;28;20105;-81
2023/02/20 06:05:39;;;;;;;1.88;1.77;;;15.60;97.20;;;;;;5052796;28;20056;-81
2023/02/20 06:08:05;;;;;;;1.80;1.70;;;15.50;97.20;;;;;;5056459;28;20549;-82
2023/02/20 06:10:30;;;;;;;1.40;1.30;;;15.60;97.40;;;;;;5054618;28;20036;-76
2023/02/20 06:12:56;;;;;;;1.40;1.30;;;15.70;97.40;;;;;;5051449;28;20452;-82
2023/02/20 06:15:22;;;;;;;1.73;1.63;;;15.70;97.40;;;;;;5049138;28;21773;-83
2023/02/20 06:17:47;;;;;;;2.15;1.77;;;15.60;97.60;;;;;;5057017;28;20421;-83
2023/02/20 06:20:13;;;;;;;1.35;1.25;;;15.70;97.80;;;;;;5051158;28;20123;-81
2023/02/20 06:22:39;;;;;;;1.50;1.40;;;15.60;97.60;;;;;;5050899;28;20212;-81
2023/02/20 06:25:05;;;;;;;1.38;1.35;;;15.60;97.60;;;;;;5055945;28;20108;-83
2023/02/20 06:27:30;;;;;;;1.60;1.50;;;15.60;97.60;;;;;;5053503;28;20051;-83
2023/02/20 06:29:56;;;;;;;1.48;1.38;;;15.60;97.40;;;;;;5043666;28;20049;-80
2023/02/20 06:32:22;;;;;;;1.50;1.40;;;15.60;97.60;;;;;;5056721;28;20045;-80
2023/02/20 06:34:47;;;;;;;2.00;1.90;;;15.60;97.60;;;;;;5056233;28;20568;-80
2023/02/20 06:37:13;;;;;;;1.63;1.52;;;15.60;97.50;;;;;;5038721;28;20179;-80
2023/02/20 06:39:38;;;;;;;2.45;1.38;;;15.60;97.70;;;;;;5053655;28;20430;-80
2023/02/20 06:42:05;;;;;;;1.20;1.20;;;15.60;98.00;;;;;;5054125;28;20179;-80
2023/02/20 06:44:32;;;;;;;1.48;1.38;;;15.70;98.20;;;;;;5058667;28;20122;-80
2023/02/20 06:46:58;;;;;;;1.00;1.00;;;15.70;98.00;;;;;;5055290;28;20126;-80
2023/02/20 06:49:24;;;;;;;1.00;1.00;;;15.60;98.10;;;;;;5055468;28;20052;-80
2023/02/20 06:51:52;;;;;;;1.05;1.05;;;15.70;98.60;;;;;;5053486;28;20502;-79
2023/02/20 06:54:20;;;;;;;1.10;1.10;;;15.60;98.20;;;;;;5054567;28;20039;-80
2023/02/20 06:56:46;;;;;;;1.77;1.30;;;15.70;98.10;;;;;;5051518;28;20809;-81
2023/02/20 06:59:12;;;;;;;1.30;1.08;;;15.70;98.00;;;;;;5034582;28;20132;-84
2023/02/20 07:01:39;;;;;;;1.33;1.20;;;15.70;98.10;;;;;;5056365;28;20048;-80
2023/02/20 07:04:05;;;;;;;1.20;1.10;;;15.70;98.20;;;;;;5052821;28;20045;-81
2023/02/20 07:06:31;;;;;;;1.08;1.08;;;15.60;98.20;;;;;;5051857;28;20044;-80
2023/02/20 07:08:56;;;;;;;1.10;1.10;;;15.60;97.60;;;;;;5053254;28;20475;-79
2023/02/20 07:11:22;;;;;;;1.00;1.00;;;15.60;97.70;;;;;;5053238;28;20029;-81
2023/02/20 07:13:47;;;;;;;1.00;1.00;;;15.60;97.80;;;;;;5038958;28;20513;-82
2023/02/20 07:16:13;;;;;;;2.25;1.13;;;15.60;97.80;;;;;;5050326;28;20072;-80
2023/02/20 07:18:39;;;;;;;0.98;0.98;;;15.60;97.70;;;;;;5050335;28;20060;-80
2023/02/20 07:21:04;;;;;;;1.27;1.27;;;15.60;97.70;;;;;;5060326;28;20477;-80
2023/02/20 07:23:30;;;;;;;1.23;1.13;;;15.60;97.60;;;;;;5057229;28;20036;-78
2023/02/20 07:25:56;;;;;;;1.05;1.05;;;15.70;97.90;;;;;;5057494;28;20044;-79
2023/02/20 07:28:21;;;;;;;1.30;1.27;;;15.70;97.70;;;;;;5054813;28;20033;-79
2023/02/20 07:30:48;;;;;;;1.13;1.02;;;15.60;97.60;;;;;;5048452;28;20038;-79
2023/02/20 07:33:14;;;;;;;0.93;0.93;;;15.70;97.60;;;;;;5046439;28;20434;-79
2023/02/20 07:35:39;;;;;;;1.02;1.02;;;15.60;97.60;;;;;;5064929;28;20089;-79
2023/02/20 07:38:05;;;;;;;0.88;0.88;;;15.60;97.60;;;;;;5054890;28;20049;-79
2023/02/20 07:40:31;;;;;;;1.08;0.90;;;15.60;97.50;;;;;;5060831;28;20629;-79
2023/02/20 07:42:56;;;;;;;1.20;1.00;;;15.70;97.40;;;;;;5052787;28;20036;-79
2023/02/20 07:45:22;;;;;;;1.30;1.20;;;15.70;97.40;;;;;;5051901;28;20030;-79
2023/02/20 07:47:47;;;;;;;1.02;1.02;;;15.60;97.50;;;;;;5032030;28;20494;-80
2023/02/20 07:50:14;;;;;;;0.90;0.90;;;15.70;97.50;;;;;;5053280;28;20395;-80
2023/02/20 07:52:40;;;;;;;0.88;0.88;;;15.70;97.70;;;;;;5041045;28;20048;-79
2023/02/20 07:55:05;;;;;;;1.13;1.02;;;15.70;97.80;;;;;;5056728;28;20409;-78
2023/02/20 07:57:31;;;;;;;0.90;0.90;;;15.70;97.80;;;;;;5051236;28;20037;-77
2023/02/20 07:59:57;;;;;;;0.85;0.85;;;15.70;98.10;;;;;;5060300;28;20053;-81
2023/02/20 08:02:22;;;;;;;0.90;0.90;;;15.70;97.90;;;;;;5054037;28;20047;-79
2023/02/20 08:04:48;;;;;;;0.80;0.80;;;15.70;97.90;;;;;;5048861;28;20571;-76
2023/02/20 08:07:13;;;;;;;1.10;1.00;;;15.70;98.20;;;;;;5056595;28;20044;-78
2023/02/20 08:09:39;;;;;;;2.67;0.80;;;15.70;98.10;;;;;;5050315;28;20040;-80
2023/02/20 08:12:05;;;;;;;2.40;0.60;;;15.70;97.90;;;;;;5050463;28;20753;-78
2023/02/20 08:14:30;;;;;;;0.75;0.73;;;15.70;97.90;;;;;;5058066;28;20068;-79
2023/02/20 08:16:56;;;;;;;0.70;0.70;;;15.70;97.80;;;;;;5056451;28;20049;-78
2023/02/20 08:19:21;;;;;;;1.27;0.85;;;15.70;97.80;;;;;;5051942;28;20053;-80
2023/02/20 08:21:47;;;;;;;2.17;1.20;;;15.70;98.00;;;;;;5049936;28;20541;-79
2023/02/20 08:24:12;;;;;;;1.50;1.40;;;15.80;98.00;;;;;;5054602;28;20041;-81
2023/02/20 08:26:44;;;;;;;2.63;1.58;;;15.70;98.10;;;;;;5056704;28;20041;-80
2023/02/20 08:29:10;;;;;;;1.90;1.70;;;15.70;98.20;;;;;;5050111;28;20041;-79
2023/02/20 08:31:36;;;;;;;1.70;1.50;;;15.70;98.30;;;;;;5052825;28;20041;-79
2023/02/20 08:34:01;;;;;;;2.40;1.35;;;15.70;98.30;;;;;;5049044;28;20409;-80
2023/02/20 08:36:27;;;;;;;1.40;1.30;;;15.70;98.60;;;;;;5054184;28;20101;-79
2023/02/20 08:38:53;;;;;;;3.60;1.50;;;15.70;98.30;;;;;;5052151;28;20037;-79
2023/02/20 08:41:19;;;;;;;5.93;1.40;;;15.60;98.40;;;;;;5036765;28;20051;-79
2023/02/20 08:43:44;;;;;;;1.60;1.08;;;15.60;98.20;;;;;;5055881;28;20040;-78
2023/02/20 08:46:10;;;;;;;2.42;1.38;;;15.60;98.20;;;;;;5052604;28;20041;-78
2023/02/20 08:48:36;;;;;;;1.42;1.33;;;15.60;98.20;;;;;;5054006;28;20044;-78
2023/02/20 08:51:02;;;;;;;2.60;1.20;;;15.60;98.20;;;;;;5049706;28;20041;-78
2023/02/20 08:53:29;;;;;;;1.75;1.30;;;15.60;98.30;;;;;;5047249;28;20475;-78
2023/02/20 08:55:54;;;;;;;1.30;1.20;;;15.60;98.20;;;;;;5049696;28;20516;-79
2023/02/20 08:58:20;;;;;;;1.70;1.02;;;15.60;98.20;;;;;;5049738;28;20119;-79
2023/02/20 09:00:46;;;;;;;0.88;0.88;;;15.60;98.30;;;;;;5049618;28;20100;-79
2023/02/20 09:03:11;;;;;;;1.00;1.00;;;15.60;98.40;;;;;;5054583;28;20498;-79
2023/02/20 09:05:37;;;;;;;1.20;1.20;;;15.60;98.30;;;;;;5051684;28;20040;-79
2023/02/20 09:08:03;;;;;;;1.70;1.60;;;15.60;98.30;;;;;;5045860;28;20051;-79
2023/02/20 09:10:28;;;;;;;1.30;1.02;;;15.60;98.40;;;;;;5057401;28;20053;-79
2023/02/20 09:12:54;;;;;;;1.13;1.13;;;15.60;98.30;;;;;;5052690;28;20040;-78
2023/02/20 09:15:20;;;;;;;2.70;1.20;;;15.50;98.30;;;;;;5052407;28;20541;-79
2023/02/20 09:17:49;;;;;;;1.10;1.00;;;15.60;98.30;;;;;;5048541;28;20052;-78
2023/02/20 09:20:15;;;;;;;0.88;0.88;;;15.60;98.70;;;;;;5032829;28;20037;-79
2023/02/20 09:22:41;;;;;;;1.02;1.02;;;15.60;98.30;;;;;;5055816;28;20473;-79
2023/02/20 09:25:07;;;;;;;1.67;0.98;;;15.50;98.30;;;;;;5057794;28;20127;-79
2023/02/20 09:27:33;;;;;;;1.35;1.10;;;15.60;98.20;;;;;;5051184;28;20035;-79
2023/02/20 09:29:59;;;;;;;0.80;0.80;;;15.60;98.10;;;;;;5049030;28;20052;-79
2023/02/20 09:32:24;;;;;;;1.48;1.38;;;15.60;98.20;;;;;;5053471;28;20041;-79
2023/02/20 09:34:50;;;;;;;0.80;0.80;;;15.50;98.20;;;;;;5066353;28;20482;-79
2023/02/20 09:37:16;;;;;;;1.30;1.10;;;15.60;98.20;;;;;;5068429;28;20037;-78
2023/02/20 09:39:41;;;;;;;0.90;0.90;;;15.60;98.20;;;;;;5054193;28;20033;-79
2023/02/20 09:42:11;;;;;;;1.00;1.00;;;15.60;98.10;;;;;;5044165;28;20083;-79
2023/02/20 09:44:49;;;;;;;0.75;0.75;;;15.60;98.20;;;;;;5046393;28;20032;-78
2023/02/20 09:47:29;;;;;;;0.90;0.90;;;15.60;98.20;;;;;;5066510;28;20593;-79
2023/02/20 09:50:00;;;;;;;0.65;0.65;;;15.50;98.10;;;;;;5065327;28;20037;-82
2023/02/20 09:52:25;;;;;;;1.15;1.10;;;15.60;98.10;;;;;;5058469;28;20417;-80
2023/02/20 09:55:02;;;;;;;0.85;0.82;;;15.60;98.10;;;;;;5064294;28;20039;-82
2023/02/20 09:57:28;;;;;;;0.60;0.60;;;15.70;98.00;;;;;;5084318;28;20044;-81
2023/02/20 09:59:57;;;;;;;0.65;0.63;;;15.70;98.40;;;;;;5035700;28;20090;-81
2023/02/20 10:02:31;;;;;;;2.53;0.68;;;15.70;98.00;;;;;;4697542;28;10000445;-82
2023/02/20 10:05:01;;;;;;;0.90;0.90;;;15.70;98.10;;;;;;5064237;28;20059;-80
2023/02/20 10:07:28;;;;;;;0.82;0.82;;;15.80;98.00;;;;;;5030605;28;20045;-82
2023/02/20 10:09:54;;;;;;;0.85;0.75;;;15.70;98.40;;;;;;5049177;28;20809;-82
2023/02/20 10:12:31;;;;;;;1.10;1.10;;;15.70;98.30;;;;;;5061184;28;20132;-82
2023/02/20 10:15:13;;;;;;;1.13;0.95;;;15.70;98.20;;;;;;5044206;28;20041;-83
2023/02/20 10:18:01;;;;;;;0.90;0.90;;;15.70;98.20;;;;;;5049391;28;20429;-83
2023/02/20 10:20:33;;;;;;;0.82;0.80;;;15.70;98.30;;;;;;5029464;28;20037;-82
2023/02/20 10:23:21;;;;;;;2.15;0.98;;;15.70;98.30;;;;;;5043537;28;20047;-82
2023/02/20 10:25:55;;;;;;;1.15;1.08;;;15.70;98.30;;;;;;5047559;28;20036;-81
2023/02/20 10:28:22;;;;;;;1.17;1.00;;;15.70;98.10;;;;;;5079890;28;20048;-80
2023/02/20 10:30:57;;;;;;;0.70;0.70;;;15.70;98.10;;;;;;5049492;28;20511;-80
2023/02/20 10:33:41;;;;;;;0.75;0.75;;;15.70;98.20;;;;;;5038927;28;20049;-80
2023/02/20 10:36:23;;;;;;;0.80;0.80;;;15.70;98.30;;;;;;5041940;28;20920;-80
2023/02/20 10:38:52;;;;;;;1.00;1.00;;;15.70;98.20;;;;;;5058686;28;20095;-80
2023/02/20 10:41:32;;;;;;;2.05;0.65;;;15.70;98.30;;;;;;5060588;28;20131;-80
2023/02/20 10:44:04;;;;;;;0.60;0.60;;;15.70;98.20;;;;;;5059485;28;20049;-79
2023/02/20 10:46:46;;;;;;;0.80;0.80;;;15.70;98.20;;;;;;5058518;28;20100;-79
2023/02/20 10:49:16;;;;;;;0.90;0.57;;;15.70;98.30;;;;;;5045445;28;20605;-79
2023/02/20 10:51:45;;;;;;;1.10;1.00;;;15.70;98.20;;;;;;5078020;28;20052;-80
2023/02/20 10:54:23;;;;;;;0.80;0.80;;;15.80;98.20;;;;;;5063478;28;20230;-81
2023/02/20 10:57:12;;;;;;;0.60;0.60;;;15.80;98.10;;;;;;5045840;28;20033;-81
2023/02/20 10:59:40;;;;;;;0.73;0.73;;;15.80;98.20;;;;;;5041849;28;20042;-80
2023/02/20 11:02:13;;;;;;;0.57;0.57;;;15.70;98.20;;;;;;5047570;28;20053;-81
2023/02/20 11:04:40;;;;;;;0.73;0.73;;;15.70;98.20;;;;;;5049775;28;20049;-89
2023/02/20 11:07:11;;;;;;;1.15;0.63;;;15.80;98.20;;;;;;5032489;28;20040;-84
2023/02/20 11:09:37;;;;;;;0.50;0.50;;;15.80;98.20;;;;;;5058195;28;20045;-85
2023/02/20 11:12:03;;;;;;;0.65;0.65;;;15.70;98.20;;;;;;5048361;28;20037;-84
2023/02/20 11:14:38;;;;;;;0.73;0.73;;;15.70;98.10;;;;;;5053889;28;20051;-86
2023/02/20 11:17:14;;;;;;;2.58;0.60;;;15.80;98.20;;;;;;5048957;28;20068;-84
2023/02/20 11:19:47;;;;;;;0.93;0.80;;;15.70;98.20;;;;;;5043831;28;20124;-84
2023/02/20 11:22:12;;;;;;;0.73;0.73;;;15.70;98.30;;;;;;5078460;28;20786;-84
2023/02/20 11:24:39;;;;;;;2.33;0.70;;;15.70;98.40;;;;;;5048558;28;20083;-83
2023/02/20 11:27:10;;;;;;;1.55;0.90;;;15.70;98.40;;;;;;5049142;28;20040;-83
2023/02/20 11:29:54;;;;;;;1.40;0.80;;;15.70;98.40;;;;;;5052146;28;20041;-82
2023/02/20 11:32:37;;;;;;;0.90;0.90;;;15.70;98.30;;;;;;5059424;28;20060;-82
2023/02/20 11:35:32;;;;;;;0.98;0.82;;;15.80;98.50;;;;;;5047224;28;20041;-83
2023/02/20 11:38:21;;;;;;;0.77;0.75;;;15.90;98.40;;;;;;5055857;28;20044;-80
2023/02/20 11:40:53;;;;;;;0.90;0.90;;;15.90;98.30;;;;;;5047274;28;20056;-78
2023/02/20 11:43:24;;;;;;;1.70;0.90;;;15.80;98.30;;;;;;5056171;28;20033;-80
2023/02/20 11:45:53;;;;;;;0.90;0.90;;;15.80;98.30;;;;;;5044818;28;20041;-85
2023/02/20 11:48:19;;;;;;;0.95;0.93;;;15.80;98.40;;;;;;5043946;28;20406;-83
2023/02/20 11:50:52;;;;;;;1.35;1.13;;;15.90;98.30;;;;;;5049131;28;20573;-84
2023/02/20 11:53:24;;;;;;;0.80;0.80;;;15.90;98.30;;;;;;5047012;28;24656;-85
2023/02/20 11:56:12;;;;;;;0.80;0.80;;;15.90;98.10;;;;;;5049889;28;20056;-85
2023/02/20 11:58:37;;;;;;;0.80;0.80;;;15.90;98.20;;;;;;5082912;28;20088;-85
2023/02/20 12:01:03;;;;;;;0.90;0.90;;;15.90;98.20;;;;;;5048468;28;20080;-81
2023/02/20 12:03:31;;;;;;;1.00;0.77;;;15.90;98.30;;;;;;5051981;28;20049;-82
2023/02/20 12:05:57;;;;;;;1.85;1.10;;;15.90;98.20;;;;;;5057309;28;20418;-81
2023/02/20 12:08:38;;;;;;;5.35;2.97;;;15.90;98.50;;;;;;5049039;28;20033;-79
2023/02/20 12:11:09;;;;;;;7.47;4.25;;;16.00;99.00;;;;;;5047277;28;20564;-85
2023/02/20 12:13:45;;;;;;;6.28;4.10;;;16.00;99.30;;;;;;5046864;28;20055;-85
2023/02/20 12:16:42;;;;;;;2.83;2.50;;;16.10;98.90;;;;;;5064661;28;20120;-84
2023/02/20 12:19:29;;;;;;;2.17;1.98;;;16.10;98.90;;;;;;5042605;28;20564;-82
2023/02/20 12:22:27;;;;;;;3.10;1.73;;;16.10;99.40;;;;;;5041818;28;20465;-81
2023/02/20 12:25:05;;;;;;;4.95;1.92;;;16.10;99.50;;;;;;5046100;28;20059;-76
2023/02/20 12:28:03;;;;;;;2.35;1.50;;;16.10;99.50;;;;;;5047193;28;20041;-77
2023/02/20 12:31:14;;;;;;;3.30;1.52;;;16.10;99.40;;;;;;5061314;28;20049;-80
2023/02/20 12:33:59;;;;;;;1.73;1.63;;;16.10;99.10;;;;;;4695453;28;10000579;-83
2023/02/20 12:36:38;;;;;;;1.80;1.70;;;16.10;99.10;;;;;;5068406;28;20044;-78
2023/02/20 12:39:07;;;;;;;1.70;1.60;;;16.00;98.70;;;;;;5046262;28;20415;-80
2023/02/20 12:42:07;;;;;;;1.88;1.73;;;16.10;98.80;;;;;;5044445;28;20094;-82
2023/02/20 12:44:56;;;;;;;1.40;1.30;;;16.00;98.80;;;;;;5054171;28;20052;-78
2023/02/20 12:47:32;;;;;;;1.60;1.50;;;16.00;99.10;;;;;;5051405;28;20044;-78
2023/02/20 12:50:11;;;;;;;1.52;1.42;;;15.90;98.80;;;;;;5047704;28;20048;-78
2023/02/20 12:52:56;;;;;;;2.47;1.67;;;15.90;99.00;;;;;;5041446;28;20055;-78
2023/02/20 12:55:21;;;;;;;;;;;15.90;98.70;;;;;;5046026;28;20052;-78
2023/02/20 12:57:59;;;;;;;1.50;1.30;;;15.90;98.70;;;;;;5045209;28;19916;-78
2023/02/20 13:00:34;;;;;;;2.45;1.40;;;15.90;98.70;;;;;;5053558;28;20552;-79
2023/02/20 13:03:11;;;;;;;0.85;0.85;;;15.90;98.70;;;;;;5062976;28;20119;-78
2023/02/20 13:05:40;;;;;;;1.92;1.30;;;15.90;98.70;;;;;;5047447;28;20068;-78
2023/02/20 13:08:13;;;;;;;1.15;1.05;;;15.90;98.70;;;;;;5054011;28;20048;-78
2023/02/20 13:11:04;;;;;;;1.75;1.40;;;16.00;98.70;;;;;;5044622;28;20044;-78
2023/02/20 13:13:37;;;;;;;1.02;0.93;;;15.90;98.70;;;;;;5045186;28;20052;-78
2023/02/20 13:16:16;;;;;;;1.88;1.00;;;15.90;98.70;;;;;;5043841;28;20045;-78
2023/02/20 13:18:58;;;;;;;1.20;1.20;;;15.90;98.70;;;;;;5046587;28;20120;-78